Terminal Aerodrome Forecast
Issued by NWS

Current Version | Previous Version | Text Only | Print | Product List | Glossary On
Versions: 1 2 3 4 5 6 7 8 9 10 11 12 13 14 15 16 17 18 19 20 21 22 23 24 25 26 27 28
000
FTUS46 KMTR 171744
TAFSFO
TAF
KSFO 171744Z 1718/1824 00000KT 3SM BR OVC006
     FM171900 19004KT 5SM BR BKN015
     FM172100 28005KT 6SM HZ SCT020 BKN160
     FM180400 19004KT P6SM BKN015
     FM180800 15005KT P6SM OVC025
     FM181700 25006KT P6SM -RA OVC025
     FM182100 27006KT 5SM -RA OVC020=

USA.gov is the U.S. government's official web portal to all federal, state and local government web resources and services.